Time;durP1;ratioP1;P1;durP2;ratioP2;P2;SDS_P1;SDS_P2;PMS_P1;PMS_P2;Temp;Humidity;BMP_temperature;BMP_pressure;BME280_temperature;BME280_humidity;BME280_pressure;Samples;Min_cycle;Max_cycle;Signal;HPM_P1;HPM_P2
2021/09/27 09:42:07;;;;;;;10.70;4.68;;;18.30;99.90;;;;;;11957487;27;20562;-66
2021/09/27 09:48:19;;;;;;;10.93;3.90;;;20.40;99.90;;;;;;11931387;28;20057;-66
2021/09/27 09:54:17;;;;;;;14.73;4.07;;;20.80;99.90;;;;;;11959352;28;20212;-66
2021/09/27 10:00:13;;;;;;;8.93;3.97;;;20.80;99.90;;;;;;11924715;28;20494;-66
2021/09/27 10:06:25;;;;;;;10.85;3.55;;;20.80;99.90;;;;;;11936965;28;20107;-66
2021/09/27 10:12:14;;;;;;;6.30;2.90;;;20.90;99.90;;;;;;11952183;28;20129;-66
2021/09/27 10:18:06;;;;;;;14.85;4.43;;;20.60;99.90;;;;;;12009032;28;20203;-66
2021/09/27 10:30:39;;;;;;;;;;;20.10;99.90;;;;;;11979216;28;20045;-68
2021/09/27 10:36:38;;;;;;;11.30;4.75;;;20.30;99.90;;;;;;11985617;28;19937;-69
2021/09/27 10:42:32;;;;;;;9.80;4.75;;;20.30;99.90;;;;;;11933604;28;20041;-69
2021/09/27 10:48:21;;;;;;;11.45;4.93;;;20.30;99.90;;;;;;11907620;28;20046;-69
2021/09/27 10:54:24;;;;;;;10.15;5.30;;;20.30;99.90;;;;;;11924897;28;20092;-69
2021/09/27 11:00:16;;;;;;;;;;;20.30;99.90;;;;;;11927826;28;20424;-68
2021/09/27 11:06:23;;;;;;;19.55;12.32;;;20.50;99.90;;;;;;11934820;28;19921;-70
2021/09/27 11:12:18;;;;;;;8.95;5.13;;;20.50;99.90;;;;;;11938170;28;20050;-70
2021/09/27 11:18:12;;;;;;;7.75;4.65;;;20.40;99.90;;;;;;11921523;28;20119;-69
2021/09/27 11:24:19;;;;;;;8.02;4.85;;;20.50;99.90;;;;;;11902073;28;20559;-69
2021/09/27 11:30:41;;;;;;;16.35;2.30;;;20.40;99.90;;;;;;11916408;28;20044;-68
2021/09/27 11:36:50;;;;;;;3.25;1.00;;;19.30;99.90;;;;;;11949453;28;20057;-68
2021/09/27 11:49:57;;;;;;;7.03;1.00;;;17.10;99.90;;;;;;11917756;28;20050;-68
2021/09/27 11:56:00;;;;;;;7.32;1.60;;;17.20;99.90;;;;;;11879299;28;20483;-68
2021/09/27 12:08:16;;;;;;;8.93;1.10;;;17.40;99.90;;;;;;11871998;28;20045;-69
2021/09/27 12:14:05;;;;;;;8.27;1.50;;;17.50;99.90;;;;;;11915711;28;20050;-69
2021/09/27 12:20:11;;;;;;;14.38;2.08;;;17.60;99.90;;;;;;11894810;28;20050;-69
2021/09/27 12:26:00;;;;;;;7.50;1.27;;;17.40;99.90;;;;;;11903240;28;20057;-69
2021/09/27 12:31:54;;;;;;;6.63;1.27;;;17.10;99.90;;;;;;11909454;28;20050;-68
2021/09/27 12:37:48;;;;;;;9.10;1.55;;;17.50;99.90;;;;;;11917956;28;20061;-70
2021/09/27 12:43:40;;;;;;;8.32;1.40;;;17.80;99.90;;;;;;11904417;28;20508;-70
2021/09/27 12:49:32;;;;;;;6.88;1.35;;;18.00;99.90;;;;;;11918014;28;20054;-70
2021/09/27 12:55:22;;;;;;;7.18;1.23;;;18.40;99.90;;;;;;11917428;28;20059;-70
2021/09/27 13:01:15;;;;;;;6.05;1.10;;;18.60;99.90;;;;;;11890550;28;20053;-70
2021/09/27 13:07:07;;;;;;;7.03;1.42;;;18.70;99.90;;;;;;11974739;28;20045;-70
2021/09/27 13:13:04;;;;;;;4.40;1.27;;;19.10;99.90;;;;;;11948721;28;20053;-69
2021/09/27 13:18:55;;;;;;;8.50;1.05;;;19.30;99.90;;;;;;11959085;28;20063;-69
2021/09/27 13:24:50;;;;;;;4.80;1.25;;;19.80;99.90;;;;;;11958816;28;20049;-69
2021/09/27 13:30:39;;;;;;;9.73;1.25;;;19.50;99.90;;;;;;11968107;28;20122;-69
2021/09/27 13:36:41;;;;;;;7.30;1.25;;;19.40;99.90;;;;;;11956849;28;20046;-69
2021/09/27 13:42:40;;;;;;;9.85;1.70;;;19.50;99.90;;;;;;11884354;28;20746;-69
2021/09/27 13:54:38;;;;;;;5.93;0.90;;;20.00;99.90;;;;;;11945498;28;20420;-69
2021/09/27 14:00:26;;;;;;;77.47;43.50;;;20.20;99.90;;;;;;11947255;28;20439;-64
2021/09/27 14:06:24;;;;;;;5.70;1.13;;;20.30;99.90;;;;;;11939192;28;20511;-64
2021/09/27 14:12:13;;;;;;;8.25;1.48;;;20.20;99.90;;;;;;11930089;28;20049;-65
2021/09/27 14:18:01;;;;;;;7.57;1.30;;;20.40;99.90;;;;;;11931380;28;20479;-68
2021/09/27 14:23:49;;;;;;;4.53;1.20;;;19.90;99.90;;;;;;11928313;28;20510;-69
2021/09/27 14:29:55;;;;;;;8.60;1.10;;;19.80;99.90;;;;;;11926674;28;20065;-69
2021/09/27 14:35:43;;;;;;;4.70;1.30;;;20.20;99.90;;;;;;11915075;28;20078;-69
2021/09/27 14:41:31;;;;;;;7.53;1.17;;;20.80;99.90;;;;;;11930096;28;20087;-69
2021/09/27 14:47:22;;;;;;;4.90;0.90;;;20.90;99.90;;;;;;11933673;28;20052;-70
2021/09/27 14:53:10;;;;;;;14.40;1.20;;;20.40;99.90;;;;;;11924207;28;20050;-70
2021/09/27 14:58:58;;;;;;;6.25;1.25;;;20.10;99.90;;;;;;11911390;28;20435;-70
2021/09/27 15:04:47;;;;;;;6.43;1.17;;;20.10;99.90;;;;;;11877278;28;20050;-70
2021/09/27 15:10:34;;;;;;;3.80;0.90;;;19.90;99.90;;;;;;11882469;28;20069;-70
2021/09/27 15:16:28;;;;;;;5.32;1.33;;;19.80;99.90;;;;;;11885271;28;20428;-70
2021/09/27 15:22:17;;;;;;;7.38;1.25;;;19.90;99.90;;;;;;11887828;28;20049;-68
2021/09/27 15:28:06;;;;;;;3.67;1.55;;;19.90;99.90;;;;;;11889896;28;20829;-68
2021/09/27 15:33:54;;;;;;;4.82;1.05;;;19.70;99.90;;;;;;11933002;28;20161;-69
2021/09/27 15:39:43;;;;;;;5.35;0.90;;;19.80;99.90;;;;;;11968171;28;20061;-69
2021/09/27 15:45:30;;;;;;;12.63;1.20;;;19.90;99.90;;;;;;11985372;28;20092;-69
2021/09/27 15:51:19;;;;;;;6.18;1.52;;;20.00;99.90;;;;;;11945370;28;20195;-69
2021/09/27 15:57:09;;;;;;;6.22;1.50;;;20.20;99.90;;;;;;11941809;28;20100;-69
2021/09/27 16:02:57;;;;;;;134.48;80.15;;;20.50;99.90;;;;;;11947028;28;20042;-68
2021/09/27 16:08:45;;;;;;;4.55;1.40;;;20.80;99.90;;;;;;11939785;28;20046;-67
2021/09/27 16:20:39;;;;;;;4.80;1.08;;;20.50;99.90;;;;;;11910902;28;20049;-66
2021/09/27 16:26:27;;;;;;;6.40;1.20;;;20.40;99.90;;;;;;11912634;28;20104;-66
2021/09/27 16:32:19;;;;;;;7.57;1.10;;;20.30;99.90;;;;;;11983798;28;20052;-66
2021/09/27 16:38:07;;;;;;;4.93;1.10;;;20.40;99.90;;;;;;11914681;28;20056;-66
2021/09/27 16:50:08;;;;;;;7.78;1.40;;;20.40;99.90;;;;;;11894730;28;20053;-66
2021/09/27 16:55:55;;;;;;;6.07;1.25;;;20.20;99.90;;;;;;11913890;28;20064;-66
2021/09/27 17:01:44;;;;;;;6.60;1.50;;;20.20;99.90;;;;;;11899560;28;20460;-66
2021/09/27 17:07:32;;;;;;;5.25;1.20;;;20.20;99.90;;;;;;11895681;28;20054;-66
2021/09/27 17:13:21;;;;;;;7.05;2.10;;;20.00;99.90;;;;;;11906944;28;20049;-66
2021/09/27 17:19:08;;;;;;;3.80;1.10;;;19.80;99.90;;;;;;11891744;28;20057;-66
2021/09/27 17:25:00;;;;;;;4.68;0.90;;;19.60;99.90;;;;;;11903315;28;20054;-66
2021/09/27 17:31:01;;;;;;;9.55;1.73;;;19.40;99.90;;;;;;11901889;28;20072;-66
2021/09/27 17:36:50;;;;;;;6.55;1.23;;;19.20;99.90;;;;;;11917867;28;20129;-66
2021/09/27 17:42:39;;;;;;;5.03;1.25;;;19.00;99.90;;;;;;11870498;28;20305;-66
2021/09/27 17:48:34;;;;;;;5.82;1.45;;;18.80;99.90;;;;;;11896649;28;20109;-67
2021/09/27 17:54:22;;;;;;;6.00;1.10;;;18.70;99.90;;;;;;11938737;28;22247;-67
2021/09/27 18:00:21;;;;;;;7.38;1.50;;;18.60;99.90;;;;;;11933346;28;20053;-67
2021/09/27 18:12:12;;;;;;;5.35;1.15;;;18.30;99.90;;;;;;11939328;28;20046;-68
2021/09/27 18:18:00;;;;;;;6.85;1.20;;;18.20;99.90;;;;;;11930736;28;20064;-68
2021/09/27 18:23:50;;;;;;;10.05;1.55;;;18.30;99.90;;;;;;11941336;28;20057;-69
2021/09/27 18:29:37;;;;;;;3.70;1.17;;;18.30;99.90;;;;;;11924964;28;20042;-69
